KMAE

Madera Municipal Airport

Madera, California, USA
METAR KMAE 172053Z AUTO 15005KT 10SM CLR 19/M02 A3013 RMK AO2 SLP200 T01941017 58023
Observed Flight Rules
Feb-17 @ 20:53 UTC (37 minutes ago) Visual Flight Rules
Wind Visibility Clouds
150° at 5 knots 10 miles
  • Clear skies
Temperatures Readings
Current 19°C / 66°F
Dewpoint -2°C / 28°F
Humidity 24%
Altimeter 30.13" Hg
Pressure 1020 hPa
Elevation 77
METAR KMAE 172053Z AUTO 15005KT 10SM CLR 19/M02 A3013 RMK AO2 SLP200 T01941017 58023
Observed Flight Rules
Feb-17 @ 20:53 UTC
(37 minutes ago)
VFR
Wind Visibility
150° at 5 knots 10 miles
Clouds
  • Clear skies
Temperature Dewpoint
19°C / 66°F -2°C / 28°F
Humidity Altimeter Pressure
24% 30.13" Hg 1020 hPa